Time;durP1;ratioP1;P1;durP2;ratioP2;P2;SDS_P1;SDS_P2;PMS_P1;PMS_P2;Temp;Humidity;BMP_temperature;BMP_pressure;BME280_temperature;BME280_humidity;BME280_pressure;Samples;Min_cycle;Max_cycle;Signal;HPM_P1;HPM_P2
2022/10/07 00:00:45;;;;;;;7.82;2.47;;;10.00;99.90;;;;;;5092658;28;20485;-66
2022/10/07 00:03:11;;;;;;;7.03;2.65;;;10.00;99.90;;;;;;5092027;28;20056;-67
2022/10/07 00:05:37;;;;;;;3.65;2.42;;;10.00;99.90;;;;;;5092487;28;20054;-66
2022/10/07 00:08:02;;;;;;;4.55;2.35;;;9.90;99.90;;;;;;5092251;28;20048;-67
2022/10/07 00:10:28;;;;;;;7.18;2.83;;;9.90;99.90;;;;;;5092234;28;20052;-66
2022/10/07 00:12:54;;;;;;;3.83;1.90;;;9.80;99.90;;;;;;5091165;28;20480;-66
2022/10/07 00:15:20;;;;;;;5.32;2.45;;;9.80;99.90;;;;;;5091878;28;20040;-67
2022/10/07 00:17:45;;;;;;;4.65;2.20;;;9.70;99.90;;;;;;5081039;28;20391;-67
2022/10/07 00:20:11;;;;;;;7.22;2.20;;;9.80;99.90;;;;;;5071476;28;20563;-66
2022/10/07 00:22:37;;;;;;;7.47;2.22;;;9.70;99.90;;;;;;5071294;28;20087;-67
2022/10/07 00:25:03;;;;;;;6.10;2.28;;;9.70;99.90;;;;;;5074514;28;20055;-66
2022/10/07 00:27:29;;;;;;;4.72;1.95;;;9.70;99.90;;;;;;5091933;28;20083;-66
2022/10/07 00:29:55;;;;;;;3.95;2.00;;;9.70;99.90;;;;;;5091927;28;20056;-66
2022/10/07 00:32:21;;;;;;;7.15;2.70;;;9.80;99.90;;;;;;5090628;28;20044;-67
2022/10/07 00:34:46;;;;;;;5.25;2.03;;;9.80;99.90;;;;;;5091630;28;20044;-66
2022/10/07 00:37:12;;;;;;;4.57;2.00;;;9.80;99.90;;;;;;5092063;28;20062;-66
2022/10/07 00:39:38;;;;;;;5.80;2.47;;;9.70;99.90;;;;;;5091350;28;20039;-66
2022/10/07 00:42:03;;;;;;;4.95;2.20;;;9.70;99.90;;;;;;5091536;28;20160;-67
2022/10/07 00:44:35;;;;;;;4.63;2.70;;;9.70;99.90;;;;;;5091640;28;20531;-67
2022/10/07 00:47:06;;;;;;;5.38;2.40;;;9.70;99.90;;;;;;5091538;28;20077;-66
2022/10/07 00:49:39;;;;;;;4.28;2.25;;;9.80;99.90;;;;;;5090568;28;20040;-66
2022/10/07 00:52:05;;;;;;;3.90;1.92;;;9.70;99.90;;;;;;5091795;28;20083;-67
2022/10/07 00:54:31;;;;;;;4.68;2.38;;;9.70;99.90;;;;;;5091667;28;20058;-66
2022/10/07 00:56:58;;;;;;;5.57;2.25;;;9.70;99.90;;;;;;5090299;28;20126;-67
2022/10/07 00:59:24;;;;;;;4.47;2.30;;;9.70;99.90;;;;;;5089877;28;20381;-67
2022/10/07 01:01:50;;;;;;;5.80;2.30;;;9.70;99.90;;;;;;5085351;28;20064;-67
2022/10/07 01:04:16;;;;;;;5.90;2.40;;;9.70;99.90;;;;;;5070260;28;20063;-67
2022/10/07 01:06:44;;;;;;;5.88;2.38;;;9.60;99.90;;;;;;5070926;28;20055;-67
2022/10/07 01:09:11;;;;;;;4.35;2.20;;;9.60;99.90;;;;;;5070090;28;20489;-67
2022/10/07 01:11:49;;;;;;;5.43;2.38;;;9.60;99.90;;;;;;5071038;28;20509;-68
2022/10/07 01:14:51;;;;;;;6.45;2.20;;;9.60;99.90;;;;;;5070677;28;20504;-67
2022/10/07 01:17:46;;;;;;;3.85;2.20;;;9.60;99.90;;;;;;5077972;28;20059;-66
2022/10/07 01:20:17;;;;;;;3.40;2.25;;;9.50;99.90;;;;;;5071753;28;20099;-67
2022/10/07 01:23:02;;;;;;;4.28;2.10;;;9.60;99.90;;;;;;5091380;28;20044;-66
2022/10/07 01:25:44;;;;;;;5.30;2.38;;;9.60;99.90;;;;;;5083518;28;20083;-66
2022/10/07 01:28:32;;;;;;;8.15;2.40;;;9.60;99.90;;;;;;5071031;28;20048;-67
2022/10/07 01:31:03;;;;;;;3.95;2.35;;;9.50;99.90;;;;;;5070994;28;20049;-67
2022/10/07 01:33:32;;;;;;;5.80;2.40;;;9.50;99.90;;;;;;5071047;28;20045;-67
2022/10/07 01:36:21;;;;;;;5.55;2.20;;;9.50;99.90;;;;;;5074769;28;20045;-67
2022/10/07 01:38:52;;;;;;;8.52;2.40;;;9.50;99.90;;;;;;5074792;28;20045;-67
2022/10/07 01:41:20;;;;;;;6.15;2.72;;;9.50;99.90;;;;;;5075118;28;20056;-67
2022/10/07 01:43:51;;;;;;;5.13;2.22;;;9.40;99.90;;;;;;5073329;28;20040;-66
2022/10/07 01:46:21;;;;;;;5.85;2.50;;;9.40;99.90;;;;;;5074741;28;20045;-66
2022/10/07 01:48:46;;;;;;;6.47;2.30;;;9.30;99.90;;;;;;5074732;28;20131;-66
2022/10/07 01:51:15;;;;;;;3.85;2.38;;;9.40;99.90;;;;;;5073202;28;20202;-68
2022/10/07 01:53:49;;;;;;;6.03;2.60;;;9.30;99.90;;;;;;5074632;28;20393;-66
2022/10/07 01:56:46;;;;;;;5.93;1.75;;;9.30;99.90;;;;;;5074618;28;20048;-67
2022/10/07 01:59:15;;;;;;;4.82;2.50;;;9.20;99.90;;;;;;5062136;28;20060;-66
2022/10/07 02:01:57;;;;;;;6.80;2.60;;;9.10;99.90;;;;;;5074119;28;20185;-67
2022/10/07 02:04:41;;;;;;;5.22;2.50;;;9.10;99.90;;;;;;5073412;28;20060;-66
2022/10/07 02:07:32;;;;;;;5.95;2.50;;;9.10;99.90;;;;;;5074444;28;20085;-66
2022/10/07 02:10:22;;;;;;;4.68;2.45;;;9.10;99.90;;;;;;5072844;28;20485;-66
2022/10/07 02:12:58;;;;;;;4.93;2.13;;;9.10;99.90;;;;;;5074340;28;20142;-66
2022/10/07 02:15:38;;;;;;;5.82;2.55;;;9.10;99.90;;;;;;5072800;28;20044;-68
2022/10/07 02:18:07;;;;;;;6.03;2.30;;;9.10;99.90;;;;;;5087733;28;20135;-67
2022/10/07 02:20:36;;;;;;;5.07;2.45;;;9.10;99.90;;;;;;5093957;28;20131;-67
2022/10/07 02:23:04;;;;;;;6.63;2.58;;;9.10;99.90;;;;;;5093988;28;20532;-67
2022/10/07 02:25:35;;;;;;;5.28;2.35;;;9.10;99.90;;;;;;5087310;28;20054;-67
2022/10/07 02:28:05;;;;;;;5.15;2.25;;;9.10;99.90;;;;;;5072795;28;20464;-66
2022/10/07 02:30:33;;;;;;;6.70;2.33;;;9.20;99.90;;;;;;5074042;28;20052;-67
2022/10/07 02:33:02;;;;;;;6.07;2.65;;;9.20;99.90;;;;;;5073804;28;20040;-67
2022/10/07 02:35:41;;;;;;;5.63;2.28;;;9.20;99.90;;;;;;5073862;28;20052;-66
2022/10/07 02:38:11;;;;;;;4.50;2.25;;;9.20;99.90;;;;;;5072899;28;20070;-66
2022/10/07 02:41:04;;;;;;;5.72;2.28;;;9.20;99.90;;;;;;5073783;28;20472;-66
2022/10/07 02:43:45;;;;;;;13.00;2.67;;;9.20;99.90;;;;;;5073753;28;20059;-67
2022/10/07 02:46:25;;;;;;;3.97;2.05;;;9.20;99.90;;;;;;5072615;28;20135;-66
2022/10/07 02:48:58;;;;;;;4.75;2.20;;;9.20;99.90;;;;;;5072590;28;20060;-66
2022/10/07 02:51:33;;;;;;;7.90;3.03;;;9.20;99.90;;;;;;5073341;28;20054;-66
2022/10/07 02:54:03;;;;;;;5.55;2.30;;;9.20;99.90;;;;;;5073630;28;20053;-67
2022/10/07 02:56:31;;;;;;;5.55;2.35;;;9.20;99.90;;;;;;5073364;28;20048;-67
2022/10/07 02:59:00;;;;;;;5.60;2.08;;;9.20;99.90;;;;;;5073208;28;20048;-66
2022/10/07 03:01:30;;;;;;;5.63;2.20;;;9.20;99.90;;;;;;5073369;28;20037;-66
2022/10/07 03:03:57;;;;;;;6.97;2.42;;;9.10;99.90;;;;;;5073427;28;20413;-66
2022/10/07 03:06:23;;;;;;;5.97;2.45;;;9.10;99.90;;;;;;5073192;28;20053;-67
2022/10/07 03:08:50;;;;;;;4.93;2.50;;;9.10;99.90;;;;;;5071836;28;20443;-67
2022/10/07 03:11:16;;;;;;;4.07;2.20;;;9.20;99.90;;;;;;5071587;28;20128;-66
2022/10/07 03:13:42;;;;;;;6.00;2.38;;;9.10;99.90;;;;;;5073047;28;20150;-68
2022/10/07 03:16:07;;;;;;;6.93;2.40;;;9.10;99.90;;;;;;5072949;28;20397;-66
2022/10/07 03:18:33;;;;;;;7.03;2.70;;;9.20;99.90;;;;;;5090782;28;20101;-66
2022/10/07 03:20:59;;;;;;;9.45;2.65;;;9.20;99.90;;;;;;5092931;28;20132;-67
2022/10/07 03:23:27;;;;;;;4.78;2.20;;;9.20;99.90;;;;;;5093230;28;20083;-66
2022/10/07 03:25:55;;;;;;;5.13;2.20;;;9.20;99.90;;;;;;5082936;28;20055;-67
2022/10/07 03:28:22;;;;;;;4.47;2.38;;;9.20;99.90;;;;;;5071584;28;20048;-67
2022/10/07 03:30:49;;;;;;;7.97;2.28;;;9.20;99.90;;;;;;5072665;28;20525;-66
2022/10/07 03:33:16;;;;;;;4.82;2.47;;;9.20;99.90;;;;;;5072843;28;20127;-66
2022/10/07 03:35:42;;;;;;;4.57;2.42;;;9.20;99.90;;;;;;5072775;28;20053;-68
2022/10/07 03:38:09;;;;;;;6.15;2.58;;;9.20;99.90;;;;;;5072507;28;20044;-67
2022/10/07 03:40:35;;;;;;;6.72;2.40;;;9.20;99.90;;;;;;5072531;28;20052;-67
2022/10/07 03:43:01;;;;;;;6.72;2.70;;;9.20;99.90;;;;;;5054697;28;20080;-65
2022/10/07 03:45:29;;;;;;;3.45;2.03;;;9.10;99.90;;;;;;5072538;28;20476;-65
2022/10/07 03:47:56;;;;;;;7.78;3.63;;;9.10;99.90;;;;;;5071498;28;20405;-65
2022/10/07 03:50:22;;;;;;;8.82;2.70;;;9.10;99.90;;;;;;5071972;28;20075;-65
2022/10/07 03:52:48;;;;;;;3.75;2.08;;;9.20;99.90;;;;;;5071105;28;20481;-66
2022/10/07 03:55:15;;;;;;;7.38;2.47;;;9.20;99.90;;;;;;5072468;28;20044;-67
2022/10/07 03:57:49;;;;;;;6.72;2.60;;;9.20;99.90;;;;;;5072134;28;20048;-66
2022/10/07 04:00:21;;;;;;;5.43;2.35;;;9.10;99.90;;;;;;5071168;28;20182;-67
2022/10/07 04:02:47;;;;;;;5.80;2.90;;;9.10;99.90;;;;;;5072199;28;20065;-66
2022/10/07 04:05:15;;;;;;;4.50;2.50;;;9.10;99.90;;;;;;5072409;28;20429;-66
2022/10/07 04:07:45;;;;;;;6.70;2.60;;;9.10;99.90;;;;;;5072081;28;20045;-67
2022/10/07 04:10:13;;;;;;;6.22;2.70;;;9.10;99.90;;;;;;5072207;28;20056;-66
2022/10/07 04:12:39;;;;;;;6.60;2.78;;;9.10;99.90;;;;;;5071834;28;20045;-66
2022/10/07 04:15:05;;;;;;;5.28;2.50;;;9.10;99.90;;;;;;5070672;28;20069;-66
2022/10/07 04:17:30;;;;;;;6.18;2.63;;;9.10;99.90;;;;;;5070852;28;20071;-67
2022/10/07 04:19:56;;;;;;;6.00;2.80;;;9.00;99.90;;;;;;5071564;28;20052;-67
2022/10/07 04:22:23;;;;;;;5.78;2.65;;;9.10;99.90;;;;;;5071714;28;20045;-67
2022/10/07 04:25:32;;;;;;;4.97;2.30;;;9.00;99.90;;;;;;5072018;28;20056;-69
2022/10/07 04:27:38;;;;;;;8.43;3.13;;;9.10;99.90;;;;;;5090744;28;20056;-67
2022/10/07 04:30:04;;;;;;;6.88;2.67;;;9.10;99.90;;;;;;5091908;28;20126;-66
2022/10/07 04:32:30;;;;;;;6.70;2.70;;;9.10;99.90;;;;;;5080457;28;20049;-67
2022/10/07 04:34:56;;;;;;;6.40;2.55;;;9.10;99.90;;;;;;5071658;28;20048;-67
2022/10/07 04:37:21;;;;;;;8.65;2.97;;;9.10;99.90;;;;;;5071539;28;20045;-67
2022/10/07 04:39:47;;;;;;;5.60;2.60;;;9.10;99.90;;;;;;5071921;28;20053;-67
2022/10/07 04:43:17;;;;;;;6.25;3.10;;;9.10;99.90;;;;;;5053504;28;20044;-67
2022/10/07 04:44:59;;;;;;;5.95;2.83;;;9.10;99.90;;;;;;5070470;28;20406;-67
2022/10/07 04:47:24;;;;;;;5.60;2.60;;;9.10;99.90;;;;;;5071092;28;20049;-66
2022/10/07 04:49:52;;;;;;;7.85;3.45;;;9.10;99.90;;;;;;5071121;28;20048;-67
2022/10/07 04:52:19;;;;;;;6.63;3.30;;;9.10;99.90;;;;;;5071358;28;20044;-67
2022/10/07 04:54:45;;;;;;;9.18;3.10;;;9.10;99.90;;;;;;5071608;28;20413;-66
2022/10/07 04:57:12;;;;;;;7.13;2.90;;;9.10;99.90;;;;;;5071627;28;20052;-66
2022/10/07 04:59:38;;;;;;;6.20;2.70;;;9.20;99.90;;;;;;5070277;28;20416;-66
2022/10/07 05:02:04;;;;;;;7.60;3.08;;;9.20;99.90;;;;;;5071148;28;20443;-66
2022/10/07 05:04:30;;;;;;;5.05;2.42;;;9.20;99.90;;;;;;5071151;28;20295;-66
2022/10/07 05:06:56;;;;;;;5.93;2.63;;;9.20;99.90;;;;;;5071234;28;20048;-67
2022/10/07 05:09:21;;;;;;;5.93;3.20;;;9.20;99.90;;;;;;5069504;28;20044;-67
2022/10/07 05:11:48;;;;;;;6.03;3.17;;;9.10;99.90;;;;;;5071087;28;20055;-66
2022/10/07 05:14:20;;;;;;;8.13;3.30;;;9.10;99.90;;;;;;5071094;28;20056;-66
2022/10/07 05:16:47;;;;;;;7.70;2.90;;;9.10;99.90;;;;;;5072874;28;20127;-67
2022/10/07 05:19:12;;;;;;;10.68;3.22;;;9.10;99.90;;;;;;5091251;28;20052;-68
2022/10/07 05:21:38;;;;;;;8.30;3.10;;;9.10;99.90;;;;;;5090882;28;20500;-67
2022/10/07 05:24:04;;;;;;;9.20;2.90;;;9.20;99.90;;;;;;5090255;28;20396;-67
2022/10/07 05:26:30;;;;;;;6.70;3.10;;;9.20;99.90;;;;;;5075594;28;20052;-67
2022/10/07 05:28:55;;;;;;;7.38;2.90;;;9.20;99.90;;;;;;5069840;28;20036;-67
2022/10/07 05:31:21;;;;;;;9.80;3.10;;;9.20;99.90;;;;;;5070755;28;20405;-67
2022/10/07 05:33:48;;;;;;;9.95;3.45;;;9.20;99.90;;;;;;5069570;28;20129;-67
2022/10/07 05:36:14;;;;;;;6.25;3.75;;;9.30;99.90;;;;;;5070556;28;20505;-68
2022/10/07 05:38:40;;;;;;;7.85;3.50;;;9.20;99.90;;;;;;5069131;28;20054;-67
2022/10/07 05:41:09;;;;;;;9.18;2.97;;;9.20;99.90;;;;;;5070079;28;20056;-67
2022/10/07 05:43:38;;;;;;;10.35;3.15;;;9.20;99.90;;;;;;5070451;28;20044;-67
2022/10/07 05:46:08;;;;;;;8.90;2.75;;;9.10;99.90;;;;;;5070477;28;20082;-67
2022/10/07 05:48:35;;;;;;;7.05;2.67;;;9.10;99.90;;;;;;5070622;28;20119;-66
2022/10/07 05:51:01;;;;;;;5.40;2.53;;;9.10;99.90;;;;;;5070208;28;20055;-66
2022/10/07 05:53:28;;;;;;;8.15;3.10;;;9.10;99.90;;;;;;5069739;28;20056;-67
2022/10/07 05:55:54;;;;;;;7.70;2.95;;;9.10;99.90;;;;;;5070713;28;20079;-66
2022/10/07 05:58:20;;;;;;;7.88;3.00;;;9.10;99.90;;;;;;5069647;28;20045;-66
2022/10/07 06:00:52;;;;;;;8.20;3.13;;;9.10;99.90;;;;;;5069205;28;20087;-67
2022/10/07 06:03:19;;;;;;;7.32;3.30;;;9.10;99.90;;;;;;5070567;28;20590;-65
2022/10/07 06:05:45;;;;;;;6.78;2.85;;;9.10;99.90;;;;;;5070574;28;20543;-66
2022/10/07 06:08:11;;;;;;;7.15;2.88;;;9.10;99.90;;;;;;5069543;28;20122;-66
2022/10/07 06:13:22;;;;;;;10.45;3.40;;;9.10;99.90;;;;;;5070351;28;20060;-64
2022/10/07 06:15:49;;;;;;;7.25;3.03;;;9.20;99.90;;;;;;5070765;28;20059;-64
2022/10/07 06:18:15;;;;;;;7.95;2.78;;;9.20;99.90;;;;;;5070316;28;20044;-64
2022/10/07 06:20:40;;;;;;;8.40;3.40;;;9.20;99.90;;;;;;5070048;28;20063;-65
2022/10/07 06:23:06;;;;;;;7.55;3.05;;;9.20;99.90;;;;;;5074073;28;20473;-64
2022/10/07 06:25:33;;;;;;;7.40;3.30;;;9.30;99.90;;;;;;5081205;28;20421;-64
2022/10/07 06:27:59;;;;;;;8.30;2.70;;;9.20;99.90;;;;;;5094356;28;20051;-64
2022/10/07 06:30:25;;;;;;;7.28;3.08;;;9.30;99.90;;;;;;5094279;28;20043;-64
2022/10/07 06:32:51;;;;;;;6.95;2.83;;;9.40;99.90;;;;;;5093263;28;20451;-64
2022/10/07 06:35:17;;;;;;;9.60;3.53;;;9.40;99.90;;;;;;5076171;28;20091;-65
2022/10/07 06:37:43;;;;;;;7.03;2.88;;;9.40;99.90;;;;;;5093895;28;20052;-64
2022/10/07 06:40:09;;;;;;;7.47;3.17;;;9.50;99.90;;;;;;5093909;28;20048;-64
2022/10/07 06:42:34;;;;;;;9.02;3.05;;;9.50;99.90;;;;;;5092481;28;20044;-64
2022/10/07 06:45:00;;;;;;;5.47;2.92;;;9.60;99.90;;;;;;5093844;28;20542;-64
2022/10/07 06:47:26;;;;;;;5.53;2.92;;;9.70;99.90;;;;;;5093776;28;20481;-64
2022/10/07 06:49:51;;;;;;;7.00;2.97;;;9.70;99.90;;;;;;5093775;28;20044;-64
2022/10/07 06:52:17;;;;;;;7.72;2.50;;;9.80;99.90;;;;;;5093258;28;20129;-63
2022/10/07 06:54:43;;;;;;;7.30;3.20;;;9.90;99.90;;;;;;5093552;28;20048;-64
2022/10/07 06:57:09;;;;;;;6.18;2.63;;;10.00;99.90;;;;;;5092074;28;20116;-65
2022/10/07 06:59:34;;;;;;;7.45;2.90;;;10.00;99.90;;;;;;5093916;28;20044;-64
2022/10/07 07:02:00;;;;;;;5.60;2.60;;;10.10;99.90;;;;;;5093196;28;20060;-64
2022/10/07 07:04:26;;;;;;;6.07;2.75;;;10.10;99.90;;;;;;5093772;28;20051;-64
2022/10/07 07:06:52;;;;;;;12.48;3.20;;;10.10;99.90;;;;;;5093435;28;20066;-64
2022/10/07 07:09:20;;;;;;;5.38;2.50;;;10.20;99.90;;;;;;5093268;28;20116;-64
2022/10/07 07:11:45;;;;;;;7.93;3.47;;;10.20;99.90;;;;;;5093099;28;20492;-64
2022/10/07 07:14:12;;;;;;;7.68;2.70;;;10.20;99.90;;;;;;5093348;28;20058;-64
2022/10/07 07:16:38;;;;;;;5.40;2.45;;;10.20;99.90;;;;;;5091602;28;20132;-64
2022/10/07 07:19:07;;;;;;;5.70;2.53;;;10.20;99.90;;;;;;5073189;28;20052;-64
2022/10/07 07:21:34;;;;;;;6.22;2.33;;;10.30;99.90;;;;;;5072407;28;20114;-64
2022/10/07 07:24:01;;;;;;;7.13;2.58;;;10.30;99.90;;;;;;5073110;28;20056;-63
2022/10/07 07:26:28;;;;;;;7.75;2.90;;;10.30;99.90;;;;;;5072937;28;20409;-64
2022/10/07 07:28:59;;;;;;;7.43;2.50;;;10.40;99.90;;;;;;5062752;28;20051;-67
2022/10/07 07:31:27;;;;;;;5.72;2.53;;;10.40;99.90;;;;;;5062692;28;20102;-65
2022/10/07 07:33:52;;;;;;;6.82;2.60;;;10.40;99.90;;;;;;5071218;28;20076;-65
2022/10/07 07:36:21;;;;;;;5.85;2.63;;;10.50;99.90;;;;;;5071891;28;20364;-65
2022/10/07 07:39:04;;;;;;;6.93;2.85;;;10.70;99.90;;;;;;5072562;28;20048;-65
2022/10/07 07:41:32;;;;;;;9.02;2.60;;;10.80;99.90;;;;;;5071235;28;20056;-66
2022/10/07 07:44:01;;;;;;;6.80;2.53;;;10.90;99.90;;;;;;5072100;28;20136;-68
2022/10/07 07:46:31;;;;;;;6.55;2.40;;;11.00;99.90;;;;;;5071684;28;20557;-68
2022/10/07 07:48:57;;;;;;;7.05;2.80;;;11.10;99.90;;;;;;5072601;28;20140;-68
2022/10/07 07:51:23;;;;;;;5.28;2.20;;;11.20;99.90;;;;;;5071444;28;20132;-69
2022/10/07 07:53:49;;;;;;;7.20;2.30;;;11.30;99.90;;;;;;5072133;28;20045;-69
2022/10/07 07:56:15;;;;;;;6.60;2.20;;;11.40;99.90;;;;;;5071881;28;20451;-69
2022/10/07 07:58:41;;;;;;;6.60;2.75;;;11.50;99.90;;;;;;5071722;28;20081;-69
2022/10/07 08:01:12;;;;;;;5.72;2.20;;;11.60;99.90;;;;;;5071770;28;20044;-68
2022/10/07 08:03:39;;;;;;;5.25;2.45;;;11.70;99.90;;;;;;5071566;28;20129;-67
2022/10/07 08:06:06;;;;;;;6.28;2.40;;;11.80;99.90;;;;;;5071681;28;20052;-65
2022/10/07 08:08:33;;;;;;;5.55;2.22;;;11.90;99.90;;;;;;5070916;28;20056;-67
2022/10/07 08:11:09;;;;;;;5.30;2.53;;;12.10;99.90;;;;;;5071501;28;20097;-65
2022/10/07 08:13:35;;;;;;;5.60;2.08;;;12.10;99.90;;;;;;5071592;28;20048;-67
2022/10/07 08:16:03;;;;;;;3.42;2.15;;;12.10;99.90;;;;;;5070177;28;20048;-68
2022/10/07 08:18:30;;;;;;;6.05;2.40;;;12.10;99.90;;;;;;5071464;28;20382;-67
2022/10/07 08:21:02;;;;;;;5.35;2.20;;;12.20;99.90;;;;;;5070781;28;20089;-68
2022/10/07 08:23:30;;;;;;;5.75;1.98;;;12.30;99.90;;;;;;5071550;28;20115;-69
2022/10/07 08:25:57;;;;;;;3.83;1.60;;;12.40;99.90;;;;;;5071590;28;20048;-68
2022/10/07 08:28:23;;;;;;;5.70;2.05;;;12.50;99.90;;;;;;5053311;28;20110;-70
2022/10/07 08:30:53;;;;;;;4.57;2.05;;;12.60;99.90;;;;;;5071016;28;20048;-67
2022/10/07 08:33:21;;;;;;;5.40;2.45;;;12.60;99.90;;;;;;5071175;28;20041;-67
2022/10/07 08:35:57;;;;;;;6.68;1.92;;;12.60;99.90;;;;;;5071062;28;20048;-69
2022/10/07 08:38:23;;;;;;;5.88;2.13;;;12.60;99.90;;;;;;5070025;28;20052;-70
2022/10/07 08:40:51;;;;;;;6.10;2.33;;;12.60;99.90;;;;;;5070188;28;20044;-67
2022/10/07 08:43:19;;;;;;;5.50;2.40;;;12.70;99.90;;;;;;5067127;28;20441;-68
2022/10/07 08:45:46;;;;;;;7.35;2.30;;;12.80;99.90;;;;;;5061665;28;20051;-68
2022/10/07 08:48:26;;;;;;;4.72;1.83;;;12.70;99.90;;;;;;5059905;28;20045;-68
2022/10/07 08:51:11;;;;;;;5.35;2.17;;;12.80;99.90;;;;;;5061565;28;20097;-68
2022/10/07 08:53:37;;;;;;;6.18;2.22;;;12.80;99.90;;;;;;5069614;28;20062;-68
2022/10/07 08:56:08;;;;;;;5.70;2.03;;;12.90;99.90;;;;;;5071249;28;20056;-68
2022/10/07 08:59:11;;;;;;;6.63;2.53;;;12.90;99.90;;;;;;5070783;28;20075;-67
2022/10/07 09:01:46;;;;;;;8.45;2.08;;;13.00;99.90;;;;;;5068690;28;20405;-69
2022/10/07 09:04:55;;;;;;;5.88;2.42;;;13.00;99.90;;;;;;5070811;28;20094;-68
2022/10/07 09:07:33;;;;;;;8.35;2.05;;;13.00;99.90;;;;;;5060284;28;20546;-68
2022/10/07 09:10:07;;;;;;;5.85;2.17;;;12.90;99.90;;;;;;5070659;28;20123;-67
2022/10/07 09:12:52;;;;;;;7.05;2.05;;;13.00;99.90;;;;;;5070427;28;20137;-68
2022/10/07 09:15:42;;;;;;;8.85;2.53;;;13.00;99.90;;;;;;5069859;28;20048;-68
2022/10/07 09:18:38;;;;;;;10.35;2.55;;;13.20;99.90;;;;;;5069617;28;20106;-66
2022/10/07 09:21:08;;;;;;;6.03;2.10;;;13.40;99.90;;;;;;5063329;28;20128;-68
2022/10/07 09:23:35;;;;;;;9.35;2.17;;;13.50;99.90;;;;;;5071137;28;20037;-68
2022/10/07 09:26:04;;;;;;;5.63;1.95;;;13.70;99.90;;;;;;5081822;28;20067;-67
2022/10/07 09:28:32;;;;;;;5.25;2.00;;;13.80;99.90;;;;;;5090685;28;20062;-70
2022/10/07 09:30:59;;;;;;;5.45;2.00;;;13.90;99.90;;;;;;5089143;28;20097;-69
2022/10/07 09:33:26;;;;;;;4.15;1.55;;;14.00;99.90;;;;;;5085255;28;20076;-68
2022/10/07 09:36:03;;;;;;;5.40;2.13;;;14.20;99.90;;;;;;5068128;28;20082;-68
2022/10/07 09:38:43;;;;;;;7.28;1.92;;;14.20;99.90;;;;;;5069602;28;20048;-68
2022/10/07 09:41:18;;;;;;;4.40;1.70;;;14.30;99.90;;;;;;5068296;28;20392;-68
2022/10/07 09:44:18;;;;;;;6.72;2.42;;;14.50;99.90;;;;;;5069403;28;20150;-69
2022/10/07 09:46:48;;;;;;;6.05;1.83;;;14.70;99.90;;;;;;5067708;28;20052;-69
2022/10/07 09:49:28;;;;;;;9.30;1.67;;;14.80;99.90;;;;;;5067530;28;20098;-65
2022/10/07 09:52:24;;;;;;;7.20;2.30;;;15.00;99.90;;;;;;5068181;28;20102;-68
2022/10/07 09:54:56;;;;;;;5.30;1.80;;;15.00;99.90;;;;;;5066043;28;20060;-68
2022/10/07 09:57:23;;;;;;;5.05;1.70;;;15.10;99.90;;;;;;5072269;28;20414;-67
2022/10/07 09:59:49;;;;;;;4.70;1.80;;;15.20;99.90;;;;;;5072879;28;20349;-68
2022/10/07 10:02:14;;;;;;;7.72;2.17;;;15.20;99.90;;;;;;5071475;28;20064;-68
2022/10/07 10:04:47;;;;;;;5.47;2.25;;;15.20;99.90;;;;;;5072145;28;20060;-67
2022/10/07 10:07:20;;;;;;;4.85;1.83;;;15.20;99.90;;;;;;5072856;28;20052;-70
2022/10/07 10:09:55;;;;;;;5.85;1.70;;;15.30;99.90;;;;;;5071434;28;20370;-68
2022/10/07 10:12:24;;;;;;;6.35;1.92;;;15.20;99.90;;;;;;5071458;28;20531;-69
2022/10/07 10:14:57;;;;;;;7.10;1.90;;;15.20;99.90;;;;;;5072692;28;20056;-68
2022/10/07 10:17:39;;;;;;;4.20;1.38;;;15.20;99.90;;;;;;5079647;28;20421;-68
2022/10/07 10:20:22;;;;;;;8.07;1.75;;;15.20;99.90;;;;;;5092092;28;20044;-69
2022/10/07 10:22:49;;;;;;;7.72;2.58;;;15.10;99.90;;;;;;5091240;28;20503;-69
2022/10/07 10:28:18;;;;;;;5.72;1.73;;;15.40;99.90;;;;;;5071124;28;20060;-68
2022/10/07 10:30:52;;;;;;;4.57;1.70;;;15.50;99.90;;;;;;5072459;28;20044;-67
2022/10/07 10:33:34;;;;;;;5.65;1.80;;;15.60;99.90;;;;;;5072072;28;20182;-67
2022/10/07 10:36:20;;;;;;;6.28;1.88;;;15.70;99.90;;;;;;5071420;28;20048;-68
2022/10/07 10:39:21;;;;;;;4.88;1.58;;;15.70;99.90;;;;;;5071245;28;20127;-69
2022/10/07 10:41:58;;;;;;;4.35;1.30;;;15.90;99.90;;;;;;5071759;28;20432;-71
2022/10/07 10:44:42;;;;;;;5.38;1.52;;;15.90;99.90;;;;;;5072292;28;20053;-67
2022/10/07 10:47:44;;;;;;;6.30;1.73;;;16.00;99.90;;;;;;5072400;28;20068;-68
2022/10/07 10:50:11;;;;;;;4.03;1.75;;;16.10;99.90;;;;;;5071372;28;20427;-69
2022/10/07 10:52:45;;;;;;;5.22;2.00;;;16.00;99.90;;;;;;5070471;28;20052;-68
2022/10/07 10:55:39;;;;;;;6.40;1.70;;;16.10;99.90;;;;;;5072650;28;20084;-69
2022/10/07 10:58:23;;;;;;;5.75;1.30;;;16.20;99.90;;;;;;5070924;28;20071;-68
2022/10/07 11:01:24;;;;;;;4.68;1.60;;;16.20;99.90;;;;;;5071812;28;20468;-68
2022/10/07 11:04:05;;;;;;;6.07;1.50;;;16.30;99.90;;;;;;5033055;28;20644;-68
2022/10/07 11:06:35;;;;;;;5.10;1.63;;;16.40;99.90;;;;;;5071573;28;20126;-70
2022/10/07 11:09:02;;;;;;;6.00;1.60;;;16.40;99.90;;;;;;5070920;28;20409;-70
2022/10/07 11:11:28;;;;;;;5.70;2.25;;;16.40;99.90;;;;;;5070324;28;20048;-71
2022/10/07 11:14:04;;;;;;;3.42;1.60;;;16.50;99.90;;;;;;5069465;28;20051;-68
2022/10/07 11:16:37;;;;;;;6.22;1.60;;;16.40;99.90;;;;;;5070089;28;20052;-68
2022/10/07 11:19:02;;;;;;;4.35;1.40;;;16.50;99.90;;;;;;5069804;28;20056;-69
2022/10/07 11:21:45;;;;;;;4.18;1.60;;;16.50;99.90;;;;;;5069731;28;20367;-69
2022/10/07 11:24:39;;;;;;;4.30;1.42;;;16.50;99.90;;;;;;5070029;28;20174;-68
2022/10/07 11:27:26;;;;;;;7.65;2.03;;;16.50;99.90;;;;;;5049490;28;20059;-68
2022/10/07 11:30:16;;;;;;;3.85;1.50;;;16.50;99.90;;;;;;5051116;28;20501;-69
2022/10/07 11:33:23;;;;;;;6.28;1.70;;;16.50;99.90;;;;;;5051391;28;20125;-68
2022/10/07 11:36:13;;;;;;;4.93;1.55;;;16.50;99.90;;;;;;5051431;28;20101;-68
2022/10/07 11:38:40;;;;;;;5.80;1.90;;;16.40;99.90;;;;;;5051460;28;20102;-69
2022/10/07 11:41:14;;;;;;;8.57;2.83;;;16.50;99.90;;;;;;5088999;28;20044;-69
2022/10/07 11:43:46;;;;;;;6.03;2.28;;;16.50;99.90;;;;;;5092185;28;20048;-68
2022/10/07 11:46:29;;;;;;;5.38;2.13;;;16.60;99.90;;;;;;5074162;28;20056;-70
2022/10/07 11:49:10;;;;;;;5.00;1.90;;;16.70;99.90;;;;;;5091953;28;20051;-68
2022/10/07 11:51:59;;;;;;;5.35;1.70;;;16.70;99.90;;;;;;5088136;28;20048;-72
2022/10/07 11:54:29;;;;;;;4.45;1.90;;;16.80;99.90;;;;;;5087629;28;20058;-69
2022/10/07 11:56:58;;;;;;;4.10;1.70;;;16.90;99.90;;;;;;5069188;28;20187;-68
2022/10/07 11:59:44;;;;;;;4.60;1.55;;;16.90;99.90;;;;;;5070034;28;20048;-68
2022/10/07 12:02:28;;;;;;;;;;;16.70;99.90;;;;;;5103717;28;20139;-72
2022/10/07 12:04:58;;;;;;;5.47;1.63;;;16.70;99.90;;;;;;5069988;28;19987;-68
2022/10/07 12:07:43;;;;;;;4.20;1.35;;;16.70;99.90;;;;;;5070148;28;20055;-68
2022/10/07 12:10:19;;;;;;;5.60;1.67;;;16.70;99.90;;;;;;5096460;28;20049;-68
2022/10/07 12:12:45;;;;;;;5.27;1.83;;;16.70;99.90;;;;;;5070215;28;20044;-69
2022/10/07 12:15:43;;;;;;;5.38;1.63;;;16.70;99.90;;;;;;5067191;28;20063;-70
2022/10/07 12:18:27;;;;;;;5.35;1.40;;;16.70;99.90;;;;;;5075082;28;20493;-69
2022/10/07 12:20:57;;;;;;;8.00;1.80;;;16.80;99.90;;;;;;5061931;28;20052;-68
2022/10/07 12:23:24;;;;;;;4.70;1.50;;;16.80;99.90;;;;;;5069787;28;20477;-71
2022/10/07 12:25:58;;;;;;;4.53;1.60;;;16.90;99.90;;;;;;5079096;28;20458;-69
2022/10/07 12:28:30;;;;;;;4.53;1.48;;;17.10;99.90;;;;;;5070745;28;20048;-68
2022/10/07 12:31:01;;;;;;;5.65;1.50;;;17.20;99.90;;;;;;5070370;28;20055;-68
2022/10/07 12:33:55;;;;;;;4.68;1.35;;;17.30;99.90;;;;;;5071142;28;20149;-69
2022/10/07 12:36:24;;;;;;;5.45;1.52;;;17.10;99.90;;;;;;5070211;28;20044;-70
2022/10/07 12:38:56;;;;;;;5.38;1.67;;;17.00;99.90;;;;;;5070034;28;20106;-70
2022/10/07 12:41:23;;;;;;;4.15;1.38;;;16.90;99.90;;;;;;5069928;28;20064;-73
2022/10/07 12:44:20;;;;;;;5.15;1.63;;;16.80;99.90;;;;;;5069576;28;20396;-71
2022/10/07 12:46:52;;;;;;;3.55;1.60;;;16.80;99.90;;;;;;5070922;28;20530;-70
2022/10/07 12:49:33;;;;;;;5.50;1.48;;;16.70;99.90;;;;;;5070911;28;20053;-68
2022/10/07 12:52:05;;;;;;;5.05;1.52;;;16.70;99.90;;;;;;5069119;28;20386;-68
2022/10/07 12:54:57;;;;;;;4.55;1.38;;;16.70;99.90;;;;;;5071114;28;20343;-69
2022/10/07 12:57:29;;;;;;;4.55;1.42;;;16.70;99.90;;;;;;5071037;28;20048;-69
2022/10/07 13:00:01;;;;;;;7.38;1.80;;;16.70;99.90;;;;;;5052691;28;20400;-69
2022/10/07 13:02:40;;;;;;;4.40;1.30;;;16.70;99.90;;;;;;5070665;28;20056;-69
2022/10/07 13:05:51;;;;;;;2.95;1.08;;;16.70;99.90;;;;;;5069615;28;20087;-71
2022/10/07 13:08:39;;;;;;;3.72;1.33;;;16.80;99.90;;;;;;5065286;28;20060;-70
2022/10/07 13:11:41;;;;;;;3.50;1.38;;;16.80;99.90;;;;;;5051380;28;20098;-68
2022/10/07 13:14:25;;;;;;;6.05;1.50;;;17.00;99.90;;;;;;5050323;28;20128;-67
2022/10/07 13:17:14;;;;;;;4.40;1.35;;;17.00;99.90;;;;;;5053929;28;20097;-68
2022/10/07 13:19:42;;;;;;;4.88;1.42;;;16.90;99.90;;;;;;5064357;28;20062;-67
2022/10/07 13:22:16;;;;;;;2.83;1.10;;;16.90;99.90;;;;;;5068666;28;20451;-68
2022/10/07 13:24:52;;;;;;;4.90;1.50;;;16.80;99.90;;;;;;5070357;28;20287;-70